createdAt,value
2019-03-24T00:00:43.109Z,97.10
2019-03-24T00:03:08.931Z,95.40
2019-03-24T00:05:34.789Z,98.20
2019-03-24T00:08:03.609Z,95.93
2019-03-24T00:10:29.472Z,99.53
2019-03-24T00:12:55.287Z,89.13
2019-03-24T00:15:26.342Z,94.70
2019-03-24T00:17:48.898Z,88.50
2019-03-24T00:20:14.847Z,95.90
2019-03-24T00:22:40.663Z,93.23
2019-03-24T00:25:06.974Z,97.00
2019-03-24T00:27:32.849Z,83.70
2019-03-24T00:29:58.658Z,96.63
2019-03-24T00:32:24.508Z,91.63
2019-03-24T00:34:50.319Z,95.57
2019-03-24T00:37:16.138Z,94.23
2019-03-24T00:39:42.270Z,83.03
2019-03-24T00:42:08.112Z,97.83
2019-03-24T00:44:34.272Z,88.17
2019-03-24T00:47:00.119Z,90.03
2019-03-24T00:49:25.917Z,93.10
2019-03-24T00:51:51.750Z,91.13
2019-03-24T00:54:17.565Z,93.87
2019-03-24T00:56:43.425Z,100.53
2019-03-24T00:59:09.540Z,91.03
2019-03-24T01:01:35.380Z,83.90
2019-03-24T01:04:01.232Z,84.83
2019-03-24T01:06:27.073Z,81.63
2019-03-24T01:08:52.914Z,86.27
2019-03-24T01:11:18.735Z,88.13
2019-03-24T01:13:44.567Z,87.23
2019-03-24T01:16:10.404Z,86.80
2019-03-24T01:18:36.288Z,89.13
2019-03-24T01:21:02.092Z,95.07
2019-03-24T01:23:27.921Z,77.57
2019-03-24T01:25:53.778Z,83.63
2019-03-24T01:28:19.620Z,100.30
2019-03-24T01:30:45.428Z,80.50
2019-03-24T01:33:11.266Z,95.93
2019-03-24T01:35:37.084Z,88.33
2019-03-24T01:38:03.045Z,86.47
2019-03-24T01:40:28.859Z,97.50
2019-03-24T01:42:54.664Z,76.47
2019-03-24T01:45:20.478Z,82.40
2019-03-24T01:47:46.303Z,84.57
2019-03-24T01:50:12.235Z,89.77
2019-03-24T01:52:38.067Z,82.83
2019-03-24T01:55:06.111Z,85.43
2019-03-24T01:57:31.947Z,86.17
2019-03-24T01:59:57.791Z,88.60
2019-03-24T02:02:23.623Z,81.43
2019-03-24T02:04:49.466Z,83.67
2019-03-24T02:07:15.309Z,75.90
2019-03-24T02:09:41.128Z,80.47
2019-03-24T02:12:06.965Z,88.13
2019-03-24T02:14:32.782Z,84.70
2019-03-24T02:16:59.325Z,81.43
2019-03-24T02:19:25.167Z,86.70
2019-03-24T02:21:50.977Z,80.00
2019-03-24T02:24:16.819Z,75.17
2019-03-24T02:26:42.761Z,74.93
2019-03-24T02:29:08.898Z,80.53
2019-03-24T02:31:34.741Z,75.10
2019-03-24T02:34:00.591Z,75.27
2019-03-24T02:36:26.399Z,76.43
2019-03-24T02:38:52.231Z,75.33
2019-03-24T02:41:18.063Z,81.10
2019-03-24T02:43:43.875Z,70.43
2019-03-24T02:46:23.214Z,78.10
2019-03-24T02:48:37.500Z,76.37
2019-03-24T02:51:03.309Z,78.97
2019-03-24T02:53:29.125Z,72.90
2019-03-24T02:55:54.969Z,76.73
2019-03-24T02:58:20.803Z,71.23
2019-03-24T03:00:46.662Z,77.43
2019-03-24T03:03:12.472Z,73.77
2019-03-24T03:05:38.314Z,71.87
2019-03-24T03:08:04.231Z,66.23
2019-03-24T03:10:30.081Z,73.57
2019-03-24T03:12:55.956Z,69.90
2019-03-24T03:15:21.796Z,66.00
2019-03-24T03:17:47.894Z,85.83
2019-03-24T03:20:13.951Z,80.33
2019-03-24T03:22:39.758Z,87.90
2019-03-24T03:25:06.689Z,68.60
2019-03-24T03:27:32.540Z,74.17
2019-03-24T03:29:58.368Z,79.37
2019-03-24T03:32:24.244Z,78.23
2019-03-24T03:34:50.052Z,71.63
2019-03-24T03:37:16.093Z,81.80
2019-03-24T03:39:41.923Z,78.13
2019-03-24T03:42:07.776Z,73.77
2019-03-24T03:44:33.605Z,72.30
2019-03-24T03:46:59.434Z,71.63
2019-03-24T03:49:25.290Z,75.00
2019-03-24T03:51:51.069Z,81.80
2019-03-24T03:54:16.944Z,69.60
2019-03-24T03:56:42.884Z,79.70
2019-03-24T03:59:08.723Z,64.77
2019-03-24T04:01:34.554Z,65.50
2019-03-24T04:04:00.376Z,68.20
2019-03-24T04:06:26.228Z,70.10
2019-03-24T04:08:52.073Z,74.10
2019-03-24T04:11:17.894Z,62.70
2019-03-24T04:13:43.735Z,68.93
2019-03-24T04:16:09.609Z,73.27
2019-03-24T04:18:35.481Z,69.90
2019-03-24T04:21:01.298Z,67.70
2019-03-24T04:23:27.139Z,65.07
2019-03-24T04:25:52.950Z,60.30
2019-03-24T04:28:18.777Z,65.27
2019-03-24T04:30:44.576Z,70.20
2019-03-24T04:33:10.408Z,67.47
2019-03-24T04:35:36.241Z,65.87
2019-03-24T04:38:02.078Z,65.40
2019-03-24T04:40:27.923Z,61.63
2019-03-24T04:42:53.734Z,72.80
2019-03-24T04:45:19.560Z,75.73
2019-03-24T04:47:45.407Z,69.70
2019-03-24T04:50:11.334Z,66.30
2019-03-24T04:52:37.168Z,77.67
2019-03-24T04:55:04.718Z,66.30
2019-03-24T04:57:30.529Z,58.30
2019-03-24T04:59:56.347Z,70.73
2019-03-24T05:02:22.177Z,64.50
2019-03-24T05:04:48.019Z,65.57
2019-03-24T05:07:13.855Z,63.67
2019-03-24T05:09:40.100Z,72.13
2019-03-24T05:12:05.921Z,72.07
2019-03-24T05:14:31.734Z,70.03
2019-03-24T05:16:57.580Z,65.90
2019-03-24T05:19:23.444Z,76.13
2019-03-24T05:21:49.292Z,67.07
2019-03-24T05:24:15.107Z,71.90
2019-03-24T05:26:40.993Z,64.37
2019-03-24T05:29:06.819Z,65.70
2019-03-24T05:31:32.655Z,62.37
2019-03-24T05:33:58.483Z,71.07
2019-03-24T05:36:24.302Z,72.10
2019-03-24T05:38:50.145Z,69.03
2019-03-24T05:41:16.057Z,76.93
2019-03-24T05:43:41.908Z,73.93
2019-03-24T05:46:07.741Z,71.10
2019-03-24T05:48:33.581Z,62.33
2019-03-24T05:50:59.408Z,68.87
2019-03-24T05:53:25.288Z,76.53
2019-03-24T05:55:51.105Z,62.97
2019-03-24T05:58:16.929Z,61.23
2019-03-24T06:00:42.743Z,71.57
2019-03-24T06:03:08.798Z,70.50
2019-03-24T06:05:34.621Z,71.73
2019-03-24T06:08:00.475Z,63.87
2019-03-24T06:10:26.281Z,73.90
2019-03-24T06:12:52.129Z,62.00
2019-03-24T06:15:17.949Z,65.63
2019-03-24T06:17:47.978Z,63.13
2019-03-24T06:20:11.748Z,66.63
2019-03-24T06:22:37.589Z,60.13
2019-03-24T06:25:05.139Z,56.50
2019-03-24T06:27:30.962Z,56.20
2019-03-24T06:29:56.788Z,60.00
2019-03-24T06:32:22.801Z,60.23
2019-03-24T06:34:48.644Z,82.00
2019-03-24T06:37:14.479Z,66.90
2019-03-24T06:39:40.325Z,63.00
2019-03-24T06:42:06.131Z,75.30
2019-03-24T06:44:31.975Z,64.63
2019-03-24T06:46:57.826Z,83.33
2019-03-24T06:49:23.667Z,79.33
2019-03-24T06:51:49.524Z,68.93
2019-03-24T06:54:15.352Z,67.50
2019-03-24T06:56:41.170Z,66.60
2019-03-24T06:59:06.994Z,76.17
2019-03-24T07:01:32.848Z,84.83
2019-03-24T07:03:58.665Z,75.93
2019-03-24T07:06:24.571Z,79.20
2019-03-24T07:08:50.382Z,89.77
2019-03-24T07:11:16.229Z,85.37
2019-03-24T07:13:42.051Z,78.47
2019-03-24T07:16:07.873Z,80.13
2019-03-24T07:18:33.729Z,85.90
2019-03-24T07:20:59.564Z,84.83
2019-03-24T07:23:25.410Z,93.40
2019-03-24T07:25:51.257Z,80.93
2019-03-24T07:28:17.088Z,77.37
2019-03-24T07:30:42.922Z,85.53
2019-03-24T07:33:08.764Z,82.83
2019-03-24T07:35:34.575Z,77.73
2019-03-24T07:38:00.404Z,77.67
2019-03-24T07:40:26.227Z,85.60
2019-03-24T07:42:52.070Z,86.00
2019-03-24T07:45:17.902Z,75.57
2019-03-24T07:47:43.752Z,79.33
2019-03-24T07:50:09.761Z,79.93
2019-03-24T07:52:35.616Z,81.30
2019-03-24T07:55:01.570Z,68.80
2019-03-24T07:57:27.401Z,80.60
2019-03-24T07:59:53.224Z,73.90
2019-03-24T08:02:19.067Z,73.27
2019-03-24T08:04:45.009Z,68.87
2019-03-24T08:07:10.854Z,70.53
2019-03-24T08:09:37.339Z,77.80
2019-03-24T08:12:03.281Z,73.53
2019-03-24T08:14:29.061Z,69.83
2019-03-24T08:16:54.883Z,81.50
2019-03-24T08:19:20.798Z,67.17
2019-03-24T08:21:46.620Z,72.53
2019-03-24T08:24:12.501Z,70.67
2019-03-24T08:26:38.306Z,63.47
2019-03-24T08:29:04.136Z,57.70
2019-03-24T08:31:29.972Z,61.33
2019-03-24T08:33:55.814Z,60.13
2019-03-24T08:36:21.649Z,66.03
2019-03-24T08:38:47.477Z,61.00
2019-03-24T08:41:13.327Z,67.63
2019-03-24T08:43:39.137Z,59.73
2019-03-24T08:46:05.004Z,61.40
2019-03-24T08:48:40.406Z,66.23
2019-03-24T08:50:58.585Z,61.83
2019-03-24T08:53:24.454Z,63.77
2019-03-24T08:55:50.299Z,59.77
2019-03-24T08:58:16.145Z,64.13
2019-03-24T09:00:41.989Z,65.00
2019-03-24T09:03:07.833Z,66.33
2019-03-24T09:05:33.853Z,58.40
2019-03-24T09:07:59.708Z,62.10
2019-03-24T09:10:25.587Z,53.67
2019-03-24T09:12:51.431Z,62.80
2019-03-24T09:15:17.264Z,66.37
2019-03-24T09:17:43.234Z,54.40
2019-03-24T09:20:09.593Z,58.40
2019-03-24T09:22:35.422Z,56.83
2019-03-24T09:25:01.269Z,62.27
2019-03-24T09:27:27.116Z,60.70
2019-03-24T09:29:52.942Z,55.67
2019-03-24T09:32:18.773Z,53.50
2019-03-24T09:34:44.597Z,57.87
2019-03-24T09:37:10.453Z,52.53
2019-03-24T09:39:36.261Z,46.20
2019-03-24T09:42:02.192Z,53.30
2019-03-24T09:44:28.006Z,51.40
2019-03-24T09:46:53.834Z,52.97
2019-03-24T09:49:19.692Z,47.37
2019-03-24T09:51:45.502Z,45.97
2019-03-24T09:54:11.384Z,47.37
2019-03-24T09:56:37.202Z,47.20
2019-03-24T09:59:03.041Z,54.40
2019-03-24T10:01:28.869Z,52.20
2019-03-24T10:03:54.708Z,45.80
2019-03-24T10:06:20.538Z,48.30
2019-03-24T10:08:47.244Z,57.57
2019-03-24T10:11:14.083Z,47.57
2019-03-24T10:13:39.929Z,49.50
2019-03-24T10:16:05.969Z,47.77
2019-03-24T10:18:31.793Z,55.20
2019-03-24T10:20:57.631Z,48.77
2019-03-24T10:23:23.472Z,49.27
2019-03-24T10:25:49.317Z,53.67
2019-03-24T10:28:15.160Z,47.10
2019-03-24T10:30:40.998Z,52.73
2019-03-24T10:33:06.825Z,53.10
2019-03-24T10:35:32.646Z,45.10
2019-03-24T10:37:58.510Z,49.07
2019-03-24T10:40:29.024Z,46.70
2019-03-24T10:42:52.120Z,50.77
2019-03-24T10:45:17.965Z,45.10
2019-03-24T10:47:43.929Z,43.80
2019-03-24T10:50:10.057Z,50.07
2019-03-24T10:52:35.955Z,44.13
2019-03-24T10:55:07.349Z,49.17
2019-03-24T10:57:33.219Z,44.30
2019-03-24T10:59:59.168Z,46.63
2019-03-24T11:02:24.997Z,41.57
2019-03-24T11:04:50.859Z,52.50
2019-03-24T11:07:16.974Z,44.70
2019-03-24T11:09:44.978Z,45.90
2019-03-24T11:12:10.823Z,48.63
2019-03-24T11:14:36.675Z,49.63
2019-03-24T11:17:02.627Z,55.83
2019-03-24T11:19:35.774Z,43.90
2019-03-24T11:21:56.248Z,48.10
2019-03-24T11:24:22.239Z,47.23
2019-03-24T11:26:48.041Z,47.93
2019-03-24T11:29:13.858Z,45.50
2019-03-24T11:31:39.711Z,45.93
2019-03-24T11:34:05.551Z,43.60
2019-03-24T11:36:31.413Z,51.87
2019-03-24T11:38:59.160Z,44.90
2019-03-24T11:41:25.118Z,46.50
2019-03-24T11:43:50.949Z,46.70
2019-03-24T11:46:16.789Z,44.00
2019-03-24T11:48:42.607Z,44.70
2019-03-24T11:51:08.461Z,46.23
2019-03-24T11:53:34.277Z,44.33
2019-03-24T11:56:00.128Z,46.57
2019-03-24T11:58:25.959Z,41.57
2019-03-24T12:00:51.779Z,51.10
2019-03-24T12:03:17.613Z,45.50
2019-03-24T12:05:43.432Z,51.60
2019-03-24T12:08:10.302Z,55.10
2019-03-24T12:10:36.318Z,53.90
2019-03-24T12:13:02.243Z,45.33
2019-03-24T12:15:28.075Z,48.30
2019-03-24T12:17:53.906Z,49.03
2019-03-24T12:20:19.731Z,46.00
2019-03-24T12:22:45.590Z,47.43
2019-03-24T12:25:11.418Z,49.50
2019-03-24T12:27:37.238Z,59.33
2019-03-24T12:30:06.543Z,46.63
2019-03-24T12:32:32.362Z,46.30
2019-03-24T12:34:58.218Z,53.57
2019-03-24T12:37:24.020Z,52.13
2019-03-24T12:39:49.867Z,50.20
2019-03-24T12:42:15.698Z,52.23
2019-03-24T12:44:41.541Z,78.37
2019-03-24T12:47:07.383Z,52.63
2019-03-24T12:49:33.241Z,49.67
2019-03-24T12:51:59.081Z,49.00
2019-03-24T12:54:25.593Z,55.33
2019-03-24T12:56:51.492Z,52.50
2019-03-24T12:59:17.455Z,48.10
2019-03-24T13:01:43.293Z,54.00
2019-03-24T13:04:09.114Z,54.60
2019-03-24T13:06:34.952Z,51.53
2019-03-24T13:09:00.796Z,57.00
2019-03-24T13:11:26.665Z,43.53
2019-03-24T13:13:52.503Z,52.37
2019-03-24T13:16:18.326Z,48.93
2019-03-24T13:18:44.201Z,52.57
2019-03-24T13:21:10.031Z,48.63
2019-03-24T13:23:35.863Z,51.13
2019-03-24T13:26:01.774Z,51.23
2019-03-24T13:28:27.629Z,47.97
2019-03-24T13:30:53.471Z,55.23
2019-03-24T13:33:19.415Z,50.33
2019-03-24T13:35:45.472Z,54.40
2019-03-24T13:38:11.348Z,51.57
2019-03-24T13:40:37.203Z,53.77
2019-03-24T13:43:03.039Z,59.47
2019-03-24T13:45:28.899Z,51.40
2019-03-24T13:47:54.738Z,53.80
2019-03-24T13:50:31.007Z,51.17
2019-03-24T13:52:48.501Z,49.47
2019-03-24T13:55:14.429Z,56.77
2019-03-24T13:57:40.294Z,58.17
2019-03-24T14:00:06.379Z,47.93
2019-03-24T14:02:32.212Z,52.83
2019-03-24T14:04:58.047Z,54.53
2019-03-24T14:07:23.914Z,54.83
2019-03-24T14:09:50.513Z,56.20
2019-03-24T14:12:16.481Z,53.83
2019-03-24T14:14:42.330Z,49.37
2019-03-24T14:17:08.184Z,56.87
2019-03-24T14:19:33.995Z,53.83
2019-03-24T14:21:59.957Z,52.00
2019-03-24T14:24:25.773Z,46.63
2019-03-24T14:26:51.608Z,57.23
2019-03-24T14:29:17.466Z,56.67
2019-03-24T14:31:43.319Z,54.67
2019-03-24T14:34:09.167Z,47.17
2019-03-24T14:36:35.126Z,53.80
2019-03-24T14:39:00.998Z,53.80
2019-03-24T14:41:26.907Z,55.80
2019-03-24T14:43:52.761Z,54.83
2019-03-24T14:46:18.602Z,54.00
2019-03-24T14:48:44.453Z,51.93
2019-03-24T14:51:10.269Z,52.60
2019-03-24T14:53:36.131Z,52.80
2019-03-24T14:56:01.982Z,56.80
2019-03-24T14:58:27.842Z,57.13
2019-03-24T15:00:53.695Z,56.57
2019-03-24T15:03:19.579Z,58.70
2019-03-24T15:05:45.436Z,55.30
2019-03-24T15:08:11.346Z,54.77
2019-03-24T15:10:37.297Z,60.90
2019-03-24T15:13:03.311Z,57.17
2019-03-24T15:15:29.156Z,55.43
2019-03-24T15:17:54.997Z,58.30
2019-03-24T15:20:20.847Z,59.10
2019-03-24T15:22:46.668Z,60.30
2019-03-24T15:25:12.595Z,57.40
2019-03-24T15:27:38.431Z,58.20
2019-03-24T15:30:07.617Z,65.33
2019-03-24T15:32:33.496Z,61.27
2019-03-24T15:34:59.299Z,70.33
2019-03-24T15:37:25.123Z,56.77
2019-03-24T15:39:50.941Z,63.50
2019-03-24T15:42:16.782Z,56.10
2019-03-24T15:44:42.623Z,58.63
2019-03-24T15:47:08.494Z,67.90
2019-03-24T15:49:34.320Z,63.20
2019-03-24T15:52:00.165Z,47.80
2019-03-24T15:54:26.029Z,57.90
2019-03-24T15:56:51.873Z,62.50
2019-03-24T15:59:17.719Z,59.53
2019-03-24T16:01:43.561Z,61.03
2019-03-24T16:04:09.422Z,60.57
2019-03-24T16:06:35.261Z,67.40
2019-03-24T16:09:01.118Z,64.70
2019-03-24T16:11:27.962Z,61.33
2019-03-24T16:13:53.827Z,69.97
2019-03-24T16:16:19.659Z,66.67
2019-03-24T16:18:45.546Z,61.00
2019-03-24T16:21:11.438Z,60.17
2019-03-24T16:23:37.308Z,68.93
2019-03-24T16:26:03.109Z,61.33
2019-03-24T16:28:28.950Z,54.83
2019-03-24T16:30:54.794Z,67.13
2019-03-24T16:33:20.656Z,60.77
2019-03-24T16:35:46.489Z,62.20
2019-03-24T16:38:12.402Z,59.53
2019-03-24T16:40:38.227Z,61.57
2019-03-24T16:43:04.211Z,66.90
2019-03-24T16:45:30.041Z,67.73
2019-03-24T16:47:55.902Z,55.67
2019-03-24T16:50:21.749Z,65.60
2019-03-24T16:52:47.618Z,68.87
2019-03-24T16:55:13.475Z,62.87
2019-03-24T16:57:39.303Z,60.67
2019-03-24T17:00:06.046Z,64.47
2019-03-24T17:02:31.912Z,60.30
2019-03-24T17:04:57.803Z,64.20
2019-03-24T17:07:23.634Z,63.77
2019-03-24T17:09:49.577Z,58.40
2019-03-24T17:12:17.332Z,66.10
2019-03-24T17:14:43.190Z,72.00
2019-03-24T17:17:11.412Z,63.60
2019-03-24T17:19:36.882Z,76.20
2019-03-24T17:22:02.814Z,63.57
2019-03-24T17:24:28.702Z,65.13
2019-03-24T17:26:54.569Z,83.17
2019-03-24T17:29:20.469Z,67.83
2019-03-24T17:31:46.608Z,74.97
2019-03-24T17:34:12.694Z,71.47
2019-03-24T17:36:38.561Z,69.23
2019-03-24T17:39:06.915Z,72.70
2019-03-24T17:41:32.781Z,74.87
2019-03-24T17:44:03.096Z,74.70
2019-03-24T17:46:26.389Z,73.20
2019-03-24T17:48:52.232Z,69.27
2019-03-24T17:51:18.070Z,73.17
2019-03-24T17:53:44.003Z,82.77
2019-03-24T17:56:10.388Z,82.53
2019-03-24T17:58:36.243Z,67.63
2019-03-24T18:01:02.469Z,79.00
2019-03-24T18:03:28.338Z,75.73
2019-03-24T18:05:54.197Z,84.93
2019-03-24T18:08:20.365Z,85.50
2019-03-24T18:10:46.218Z,86.47
2019-03-24T18:13:12.075Z,85.33
2019-03-24T18:15:37.936Z,95.03
2019-03-24T18:18:03.890Z,86.03
2019-03-24T18:20:32.549Z,92.30
2019-03-24T18:23:00.312Z,82.47
2019-03-24T18:25:26.161Z,80.60
2019-03-24T18:27:52.041Z,99.47
2019-03-24T18:30:17.982Z,78.97
2019-03-24T18:32:43.826Z,76.10
2019-03-24T18:35:09.801Z,83.07
2019-03-24T18:37:35.838Z,81.97
2019-03-24T18:40:03.538Z,91.23
2019-03-24T18:42:29.385Z,75.07
2019-03-24T18:44:55.360Z,80.03
2019-03-24T18:47:21.220Z,79.10
2019-03-24T18:49:47.078Z,71.37
2019-03-24T18:52:22.350Z,82.97
2019-03-24T18:54:40.753Z,95.23
2019-03-24T18:57:06.602Z,80.63
2019-03-24T18:59:32.478Z,81.57
2019-03-24T19:01:58.587Z,79.53
2019-03-24T19:04:24.459Z,82.67
2019-03-24T19:06:50.293Z,85.03
2019-03-24T19:09:16.141Z,74.47
2019-03-24T19:11:42.055Z,83.73
2019-03-24T19:14:07.909Z,85.37
2019-03-24T19:16:33.759Z,85.20
2019-03-24T19:18:59.583Z,76.30
2019-03-24T19:21:25.437Z,81.47
2019-03-24T19:23:51.271Z,81.10
2019-03-24T19:26:17.151Z,88.07
2019-03-24T19:28:43.111Z,79.10
2019-03-24T19:31:08.989Z,71.20
2019-03-24T19:33:34.830Z,78.40
2019-03-24T19:36:00.670Z,83.70
2019-03-24T19:38:26.526Z,69.33
2019-03-24T19:40:52.381Z,79.10
2019-03-24T19:43:19.245Z,65.20
2019-03-24T19:45:45.080Z,75.30
2019-03-24T19:48:10.943Z,67.10
2019-03-24T19:50:36.782Z,73.77
2019-03-24T19:53:02.844Z,72.83
2019-03-24T19:55:28.682Z,68.77
2019-03-24T19:57:54.576Z,72.17
2019-03-24T20:00:20.543Z,66.80
2019-03-24T20:02:46.419Z,76.17
2019-03-24T20:05:12.263Z,64.40
2019-03-24T20:07:47.516Z,76.10
2019-03-24T20:10:06.292Z,69.63
2019-03-24T20:12:32.163Z,80.53
2019-03-24T20:14:58.027Z,66.90
2019-03-24T20:17:24.175Z,73.93
2019-03-24T20:19:50.046Z,78.10
2019-03-24T20:22:15.893Z,82.50
2019-03-24T20:24:41.753Z,84.00
2019-03-24T20:27:07.616Z,75.10
2019-03-24T20:29:33.483Z,92.23
2019-03-24T20:31:59.321Z,96.03
2019-03-24T20:34:25.165Z,77.93
2019-03-24T20:36:50.992Z,81.33
2019-03-24T20:39:16.880Z,79.03
2019-03-24T20:41:42.721Z,74.87
2019-03-24T20:44:11.187Z,79.47
2019-03-24T20:46:36.338Z,78.03
2019-03-24T20:49:02.206Z,76.67
2019-03-24T20:51:28.080Z,80.90
2019-03-24T20:53:54.144Z,67.13
2019-03-24T20:56:20.008Z,77.40
2019-03-24T20:58:45.865Z,74.00
2019-03-24T21:01:11.699Z,84.00
2019-03-24T21:03:37.531Z,74.97
2019-03-24T21:06:03.391Z,72.87
2019-03-24T21:08:29.261Z,67.30
2019-03-24T21:10:55.132Z,82.97
2019-03-24T21:13:20.985Z,76.13
2019-03-24T21:15:46.832Z,83.00
2019-03-24T21:18:12.664Z,70.90
2019-03-24T21:20:38.724Z,81.47
2019-03-24T21:23:04.549Z,71.77
2019-03-24T21:25:30.393Z,78.40
2019-03-24T21:27:56.325Z,69.10
2019-03-24T21:30:33.033Z,75.97
2019-03-24T21:32:59.474Z,73.60
2019-03-24T21:35:25.362Z,74.23
2019-03-24T21:37:52.036Z,71.90
2019-03-24T21:40:17.855Z,86.70
2019-03-24T21:42:43.712Z,80.33
2019-03-24T21:45:09.637Z,72.23
2019-03-24T21:47:35.500Z,75.70
2019-03-24T21:50:01.339Z,75.60
2019-03-24T21:52:27.191Z,72.93
2019-03-24T21:54:53.077Z,77.70
2019-03-24T21:57:18.895Z,84.30
2019-03-24T21:59:44.706Z,75.10
2019-03-24T22:02:10.606Z,77.63
2019-03-24T22:04:36.473Z,69.77
2019-03-24T22:07:02.319Z,74.20
2019-03-24T22:09:28.142Z,108.77
2019-03-24T22:11:53.970Z,84.67
2019-03-24T22:14:19.816Z,81.40
2019-03-24T22:16:45.659Z,80.57
2019-03-24T22:19:11.637Z,90.77
2019-03-24T22:21:37.458Z,73.60
2019-03-24T22:24:03.322Z,77.80
2019-03-24T22:26:29.142Z,74.57
2019-03-24T22:28:55.005Z,71.10
2019-03-24T22:31:20.859Z,72.73
2019-03-24T22:33:46.689Z,72.70
2019-03-24T22:36:12.542Z,82.70
2019-03-24T22:38:38.407Z,76.27
2019-03-24T22:41:04.347Z,98.17
2019-03-24T22:43:30.184Z,104.33
2019-03-24T22:45:56.026Z,101.97
2019-03-24T22:48:21.872Z,71.80
2019-03-24T22:50:47.722Z,70.70
2019-03-24T22:53:13.576Z,68.10
2019-03-24T22:55:39.494Z,72.70
2019-03-24T22:58:05.374Z,64.90
2019-03-24T23:00:41.661Z,71.87
2019-03-24T23:03:07.626Z,79.93
2019-03-24T23:05:33.472Z,70.37
2019-03-24T23:07:59.305Z,77.10
2019-03-24T23:10:25.144Z,69.13
2019-03-24T23:12:50.993Z,62.10
2019-03-24T23:15:16.794Z,62.53
2019-03-24T23:17:42.742Z,61.30
2019-03-24T23:20:08.762Z,66.70
2019-03-24T23:22:34.721Z,61.93
2019-03-24T23:25:00.537Z,71.60
2019-03-24T23:27:26.383Z,55.40
2019-03-24T23:29:52.226Z,63.77
2019-03-24T23:32:18.094Z,67.50
2019-03-24T23:34:43.887Z,63.47
2019-03-24T23:37:09.716Z,65.53
2019-03-24T23:39:35.567Z,57.10
2019-03-24T23:42:01.396Z,67.73
2019-03-24T23:44:27.249Z,63.90
2019-03-24T23:46:53.082Z,70.13
2019-03-24T23:49:18.945Z,60.70
2019-03-24T23:51:44.780Z,74.57
2019-03-24T23:54:10.666Z,69.80
2019-03-24T23:56:36.483Z,74.83
2019-03-24T23:59:02.518Z,64.67
